Time;durP1;ratioP1;P1;durP2;ratioP2;P2;SDS_P1;SDS_P2;PMS_P1;PMS_P2;Temp;Humidity;BMP_temperature;BMP_pressure;BME280_temperature;BME280_humidity;BME280_pressure;Samples;Min_cycle;Max_cycle;Signal;HPM_P1;HPM_P2
2021/06/12 00:00:22;;;;;;;2.78;1.00;;;;;;;15.93;58.35;101644.66;3750371;22;20043;-81
2021/06/12 00:03:14;;;;;;;4.07;1.10;;;;;;;15.87;57.70;101634.31;3842581;22;20491;-82
2021/06/12 00:09:01;;;;;;;2.42;1.05;;;;;;;15.76;58.04;101640.75;3774584;22;21020;-82
2021/06/12 00:14:45;;;;;;;3.22;0.98;;;;;;;15.66;58.28;101641.91;1218797;22;21561;-81
2021/06/12 00:20:33;;;;;;;2.67;0.73;;;;;;;15.58;58.44;101654.41;1223689;22;21530;-82
2021/06/12 00:32:06;;;;;;;3.53;1.00;;;;;;;15.44;58.53;101661.81;3744277;22;20015;-82
2021/06/12 00:43:52;;;;;;;3.20;1.13;;;;;;;15.23;58.72;101664.13;3765657;22;21347;-81
2021/06/12 00:49:46;;;;;;;3.75;1.05;;;;;;;15.15;60.46;101676.59;3812985;22;20035;-82
2021/06/12 00:55:53;;;;;;;3.70;1.08;;;;;;;15.02;59.06;101669.94;1229745;22;21466;-81
2021/06/12 01:16:38;;;;;;;3.05;0.95;;;;;;;14.77;59.89;101674.97;728616;22;22187;-82
2021/06/12 01:31:05;;;;;;;2.33;0.90;;;;;;;14.73;61.30;101676.78;3720798;22;20036;-82
2021/06/12 01:36:51;;;;;;;2.28;0.85;;;;;;;14.68;60.19;101676.03;1229772;22;21441;-81
2021/06/12 02:05:32;;;;;;;3.25;0.70;;;;;;;14.50;60.49;101687.00;1304660;22;21346;-81
2021/06/12 02:26:44;;;;;;;3.08;1.00;;;;;;;14.18;61.02;101691.16;1227153;22;21536;-81
2021/06/12 02:32:36;;;;;;;3.05;1.00;;;;;;;14.10;62.75;101708.00;1152237;22;20176;-81
2021/06/12 02:38:32;;;;;;;2.00;0.85;;;;;;;13.98;61.13;101719.59;1223206;22;21984;-82
2021/06/12 03:15:13;;;;;;;6.03;1.60;;;;;;;13.81;62.67;101748.84;1231068;22;21448;-82
2021/06/12 03:26:53;;;;;;;3.53;1.25;;;;;;;13.82;62.85;101760.19;1233658;22;21478;-82
2021/06/12 03:32:34;;;;;;;4.32;1.13;;;;;;;13.84;62.61;101742.66;765421;22;21430;-82
2021/06/12 03:53:45;;;;;;;3.50;1.20;;;;;;;13.77;64.14;101769.03;3700885;22;20031;31
2021/06/12 03:56:38;;;;;;;2.65;0.98;;;;;;;13.76;62.53;101771.69;1233169;22;21422;-81
2021/06/12 04:02:29;;;;;;;4.13;1.23;;;;;;;13.71;62.75;101769.16;1234336;22;21769;-82
2021/06/12 04:16:47;;;;;;;3.30;1.23;;;;;;;13.53;63.94;101737.97;3750249;22;20041;-81
2021/06/12 04:31:48;;;;;;;2.55;0.93;;;;;;;13.69;62.77;101755.19;1230509;22;20197;-81
2021/06/12 04:40:37;;;;;;;3.70;1.08;;;;;;;13.68;62.84;101758.69;1224028;22;21465;-81
2021/06/12 04:49:31;;;;;;;3.67;0.98;;;;;;;13.62;63.12;101756.19;1227259;22;21976;-82
2021/06/12 05:19:32;;;;;;;2.90;1.08;;;;;;;13.62;65.96;101761.44;1299467;22;20175;-82
2021/06/12 05:28:15;;;;;;;2.40;0.90;;;;;;;13.98;64.67;101787.88;3800363;22;20032;-81
2021/06/12 05:30:43;;;;;;;1.67;0.65;;;;;;;13.97;65.51;101797.53;3819101;22;20059;-81
2021/06/12 05:33:35;;;;;;;2.03;0.80;;;;;;;14.10;63.56;101803.44;3805512;22;20103;-81
2021/06/12 05:39:22;;;;;;;3.40;1.00;;;;;;;14.19;63.60;101803.25;1234051;22;21522;-81
2021/06/12 05:42:14;;;;;;;3.30;0.93;;;;;;;14.24;63.44;101811.00;3787997;22;20040;-81
2021/06/12 05:45:07;;;;;;;2.83;1.00;;;;;;;14.27;63.30;101809.19;3832926;22;20088;-81
2021/06/12 05:50:43;;;;;;;3.95;0.88;;;;;;;14.33;63.98;101809.97;3731586;22;20048;-81
2021/06/12 05:56:19;;;;;;;3.17;1.10;;;;;;;14.40;64.08;101808.97;1373443;22;20172;-82
2021/06/12 05:58:54;;;;;;;3.47;0.70;;;;;;;14.42;64.42;101804.53;3767134;22;20503;-81
2021/06/12 06:07:14;;;;;;;2.45;1.05;;;;;;;14.45;64.38;101801.84;3806485;22;20038;-81
2021/06/12 06:15:24;;;;;;;3.27;1.00;;;;;;;14.56;63.94;101812.16;3736017;22;20054;31
2021/06/12 06:18:00;;;;;;;1.33;0.65;;;;;;;14.79;63.72;101830.91;3743825;22;20780;-82
2021/06/12 06:23:29;;;;;;;3.10;1.05;;;;;;;14.78;64.34;101826.56;3809667;22;20034;-81
2021/06/12 06:29:22;;;;;;;2.90;0.90;;;;;;;15.05;63.11;101840.84;1303802;22;21982;-81
2021/06/12 06:31:52;;;;;;;3.28;0.80;;;;;;;15.09;64.24;101833.75;1203850;22;20157;-81
2021/06/12 06:37:30;;;;;;;2.42;0.90;;;;;;;15.27;63.75;101828.06;1367425;22;20917;-81
2021/06/12 06:40:29;;;;;;;2.35;0.80;;;;;;;15.35;63.67;101830.50;3761966;22;20943;-82
2021/06/12 06:43:20;;;;;;;1.50;0.70;;;;;;;15.46;62.99;101839.88;3730000;22;20344;-81
2021/06/12 06:48:54;;;;;;;2.55;0.90;;;;;;;15.62;62.81;101850.88;1302549;22;20988;-82
2021/06/12 06:54:12;;;;;;;1.63;0.85;;;;;;;15.60;63.06;101836.88;1452775;22;20968;-81
2021/06/12 06:59:23;;;;;;;1.50;0.60;;;;;;;15.80;63.49;101860.09;3781088;22;20106;-82
2021/06/12 07:02:22;;;;;;;3.08;0.95;;;;;;;15.92;62.68;101872.09;3791406;22;21047;-82
2021/06/12 07:04:57;;;;;;;2.83;0.95;;;;;;;15.98;62.47;101864.03;1516038;22;20188;-81
2021/06/12 07:07:27;;;;;;;2.63;1.02;;;;;;;16.05;62.63;101866.44;3743911;22;20043;31
2021/06/12 07:16:21;;;;;;;2.35;1.00;;;;;;;16.29;61.69;101872.84;3734345;22;20634;-81
2021/06/12 07:18:49;;;;;;;1.20;0.60;;;;;;;16.29;61.98;101870.19;3798552;22;20047;31
2021/06/12 07:21:19;;;;;;;2.10;0.80;;;;;;;16.40;61.11;101875.16;3790131;22;20038;-82
2021/06/12 07:24:01;;;;;;;1.63;0.73;;;;;;;16.55;60.61;101882.63;3745591;22;20066;-82
2021/06/12 07:26:29;;;;;;;2.10;0.70;;;;;;;16.57;60.39;101885.22;1227509;22;20223;-82
2021/06/12 07:28:59;;;;;;;1.83;0.68;;;;;;;16.68;60.87;101874.38;1217902;22;20164;-82
2021/06/12 07:31:43;;;;;;;2.05;0.70;;;;;;;16.78;60.62;101884.66;1199015;22;20190;-82
2021/06/12 07:37:12;;;;;;;2.42;0.63;;;;;;;16.86;59.42;101856.25;3793058;22;20052;-82
2021/06/12 07:42:34;;;;;;;1.77;0.60;;;;;;;17.06;59.31;101867.97;3851056;22;20055;-82
2021/06/12 07:45:34;;;;;;;0.70;0.47;;;;;;;17.12;59.15;101873.06;3740415;22;20029;-80
2021/06/12 07:57:03;;;;;;;2.58;0.70;;;;;;;17.44;57.87;101887.03;3700585;22;20097;-82
2021/06/12 07:59:30;;;;;;;2.00;0.68;;;;;;;17.45;55.99;101875.53;3594011;40;20794;-81
2021/06/12 08:01:58;;;;;;;0.87;0.70;;;;;;;17.43;56.42;101874.72;3702017;22;20045;-80
2021/06/12 08:04:33;;;;;;;0.65;0.40;;;;;;;17.58;56.88;101883.00;3667822;22;21386;-81
2021/06/12 08:07:17;;;;;;;0.73;0.43;;;;;;;17.62;57.04;101883.78;1298147;22;20164;-82
2021/06/12 08:12:45;;;;;;;1.70;0.47;;;;;;;17.68;56.59;101883.56;1522909;22;20207;-81
2021/06/12 08:18:14;;;;;;;0.70;0.47;;;;;;;17.71;56.81;101879.97;3658463;22;20550;-82
2021/06/12 08:21:06;;;;;;;2.08;0.60;;;;;;;17.82;57.12;101891.06;3628598;22;20044;-82
2021/06/12 08:32:45;;;;;;;2.65;1.20;;;;;;;17.98;56.78;101880.81;1192871;23;20233;-82
2021/06/12 08:38:38;;;;;;;2.35;1.00;;;;;;;18.04;56.88;101880.59;3708912;23;20034;31
2021/06/12 08:47:04;;;;;;;2.65;0.82;;;;;;;18.08;57.31;101883.09;3752026;22;20040;-82
2021/06/12 08:49:32;;;;;;;3.05;0.82;;;;;;;18.07;57.01;101885.78;1209311;22;20185;31
2021/06/12 08:55:15;;;;;;;4.38;1.20;;;;;;;18.19;56.83;101898.56;3821868;22;20041;-82
2021/06/12 08:57:44;;;;;;;3.08;1.08;;;;;;;18.07;57.09;101875.22;3756420;22;20066;-81
2021/06/12 09:03:11;;;;;;;2.65;0.88;;;;;;;18.34;57.50;101913.88;3699787;22;20068;31
2021/06/12 09:06:12;;;;;;;4.03;0.98;;;;;;;18.46;56.82;101917.91;3712588;22;20068;-82
2021/06/12 09:09:04;;;;;;;1.55;0.90;;;;;;;18.63;56.83;101917.28;1359990;22;20187;-81
2021/06/12 09:17:16;;;;;;;3.15;0.80;;;;;;;19.01;55.71;101928.22;3714216;22;20098;-81
2021/06/12 09:19:46;;;;;;;0.93;0.65;;;;;;;19.16;56.22;101925.00;3610268;39;20342;-82
2021/06/12 09:22:13;;;;;;;2.60;1.10;;;;;;;19.21;55.53;101925.69;3626666;39;20068;-82
2021/06/12 09:24:45;;;;;;;4.00;1.00;;;;;;;19.37;54.95;101921.50;3623979;39;20188;-82
2021/06/12 09:30:18;;;;;;;1.73;0.90;;;;;;;19.63;54.92;101927.56;3665158;22;20420;-80
2021/06/12 09:32:48;;;;;;;2.55;0.98;;;;;;;19.69;54.72;101919.34;3690831;22;20040;-79
2021/06/12 09:35:32;;;;;;;3.88;1.20;;;;;;;19.80;54.40;101922.41;3654597;22;20055;-82
2021/06/12 09:38:00;;;;;;;1.45;0.88;;;;;;;19.81;53.61;101925.94;3629548;39;20040;-83
2021/06/12 09:40:31;;;;;;;3.22;0.90;;;;;;;19.92;53.43;101923.69;3630509;39;20462;-83
2021/06/12 09:43:08;;;;;;;1.80;0.70;;;;;;;19.98;54.00;101917.28;3622041;39;20056;-83
2021/06/12 09:45:41;;;;;;;0.95;0.65;;;;;;;20.03;53.67;101918.81;3640831;39;20309;-82
2021/06/12 09:48:12;;;;;;;1.60;0.80;;;;;;;20.12;53.45;101917.53;3625747;39;20040;-82
2021/06/12 09:53:50;;;;;;;3.40;1.40;;;;;;;20.55;53.15;101928.97;964113;22;20261;-82
2021/06/12 09:56:18;;;;;;;3.55;1.52;;;;;;;20.69;51.40;101922.09;3619036;39;20039;-83
2021/06/12 09:58:54;;;;;;;4.32;1.60;;;;;;;20.90;51.88;101936.19;3707654;22;20692;-82
2021/06/12 10:01:29;;;;;;;3.42;1.58;;;;;;;21.02;52.07;101933.88;3667757;22;20028;-82
2021/06/12 10:04:14;;;;;;;3.58;1.33;;;;;;;21.15;52.26;101935.03;3629649;39;20040;-83
2021/06/12 10:07:10;;;;;;;3.22;1.20;;;;;;;21.44;52.27;101938.97;3616232;39;20595;-83
2021/06/12 10:09:39;;;;;;;2.05;1.02;;;;;;;21.61;50.80;101935.50;3629781;39;20031;-83
2021/06/12 10:12:07;;;;;;;2.55;1.52;;;;;;;21.73;50.82;101946.38;3619707;39;20018;-82
2021/06/12 10:15:05;;;;;;;3.60;1.38;;;;;;;22.03;51.00;101956.41;3620628;39;20019;-83
2021/06/12 10:17:38;;;;;;;4.15;1.48;;;;;;;21.99;48.76;101950.38;3627030;39;20055;-82
2021/06/12 10:20:07;;;;;;;3.15;1.33;;;;;;;21.99;48.64;101955.69;3627216;39;20052;-83
2021/06/12 10:22:45;;;;;;;6.15;1.70;;;;;;;22.03;49.49;101957.28;3627867;39;20039;-83
2021/06/12 10:25:16;;;;;;;2.78;1.25;;;;;;;22.07;48.94;101946.50;3627516;39;20459;-83
2021/06/12 10:27:50;;;;;;;2.92;1.40;;;;;;;22.22;49.34;101945.72;3628875;39;20031;-84
2021/06/12 10:30:20;;;;;;;3.92;1.45;;;;;;;22.34;47.56;101950.41;3620724;39;20028;-84
2021/06/12 10:35:34;;;;;;;4.93;1.48;;;;;;;22.54;47.75;101947.56;3619182;39;20058;-83
2021/06/12 10:40:56;;;;;;;4.32;1.52;;;;;;;22.54;48.23;101952.88;3607255;39;20043;-84
2021/06/12 10:43:25;;;;;;;3.38;1.52;;;;;;;22.41;47.33;101957.16;3611666;39;20459;-83
2021/06/12 10:46:04;;;;;;;5.38;1.60;;;;;;;22.38;48.74;101956.44;3589300;40;20030;-82
2021/06/12 10:48:49;;;;;;;3.28;1.65;;;;;;;22.31;48.61;101958.56;3577120;40;20026;-83
2021/06/12 10:51:25;;;;;;;3.50;1.63;;;;;;;22.30;48.67;101962.13;3578240;40;20044;-83
2021/06/12 10:54:10;;;;;;;3.78;1.67;;;;;;;22.38;49.34;101967.94;3572157;40;20026;-83
2021/06/12 10:56:52;;;;;;;4.43;1.15;;;;;;;22.40;48.26;101962.53;3574206;40;20026;-84
2021/06/12 10:59:44;;;;;;;2.97;1.50;;;;;;;22.49;48.38;101965.56;3588596;39;20025;-83
2021/06/12 11:02:21;;;;;;;1.90;1.20;;;;;;;22.46;46.30;101964.88;3576818;40;20017;-83
2021/06/12 11:05:06;;;;;;;2.72;0.93;;;;;;;22.54;47.42;101952.88;3581886;40;20030;-83
2021/06/12 11:07:43;;;;;;;3.35;0.98;;;;;;;22.54;47.97;101952.03;3576995;40;20050;-83
2021/06/12 11:10:11;;;;;;;2.33;0.90;;;;;;;22.60;46.43;101966.81;3581793;40;20076;-83
2021/06/12 11:12:54;;;;;;;2.55;0.77;;;;;;;22.67;47.57;101953.09;3582066;40;20034;-83
2021/06/12 11:15:21;;;;;;;2.08;0.80;;;;;;;22.68;46.41;101954.81;3582024;40;20336;-83
2021/06/12 11:18:10;;;;;;;1.98;0.90;;;;;;;22.82;47.99;101962.06;3581950;40;20075;-83
2021/06/12 11:21:02;;;;;;;1.40;0.85;;;;;;;22.91;47.68;101971.38;3630124;22;20044;-83
2021/06/12 11:23:48;;;;;;;2.13;0.80;;;;;;;22.92;47.36;101963.31;3598920;40;20514;-82
2021/06/12 11:26:15;;;;;;;2.88;1.30;;;;;;;22.84;46.54;101970.81;3604136;40;20341;-82
2021/06/12 11:28:47;;;;;;;1.85;0.80;;;;;;;22.87;47.24;101968.00;3594972;40;20412;-82
2021/06/12 11:31:23;;;;;;;1.52;0.88;;;;;;;22.97;46.99;101960.41;3602381;40;20035;-83
2021/06/12 11:34:10;;;;;;;2.60;0.98;;;;;;;23.01;47.66;101957.50;3592156;40;20027;-83
2021/06/12 11:36:41;;;;;;;2.25;1.20;;;;;;;23.05;47.18;101969.69;3600946;39;20445;-83
2021/06/12 11:39:11;;;;;;;3.10;1.40;;;;;;;23.03;46.57;101965.41;3595466;40;20303;-83
2021/06/12 11:41:39;;;;;;;3.90;1.55;;;;;;;23.03;46.19;101971.56;3594090;40;20024;-83
2021/06/12 11:44:07;;;;;;;4.85;1.55;;;;;;;23.02;46.16;101963.69;3589594;39;20036;-83
2021/06/12 11:46:38;;;;;;;2.80;1.30;;;;;;;23.10;47.33;101977.41;3583076;39;20020;-83
2021/06/12 11:51:54;;;;;;;;;;;;;;;23.34;48.20;101979.69;3624173;39;20035;-82
2021/06/12 11:54:27;;;;;;;3.08;1.00;;;;;;;23.33;46.28;101970.81;3633292;39;20704;-83
2021/06/12 11:57:00;;;;;;;1.40;0.90;;;;;;;23.48;44.45;101967.28;3606756;39;20400;-83
2021/06/12 11:59:30;;;;;;;2.53;0.93;;;;;;;23.55;44.44;101968.66;3624138;39;20020;-83
2021/06/12 12:02:07;;;;;;;3.55;1.20;;;;;;;23.71;46.35;101971.31;3607184;39;20032;-82
2021/06/12 12:04:39;;;;;;;1.60;1.00;;;;;;;23.75;44.28;101969.34;3615867;39;20057;-83
2021/06/12 12:07:15;;;;;;;1.83;1.08;;;;;;;23.89;45.27;101969.41;3612077;39;20041;-83
2021/06/12 12:09:57;;;;;;;1.65;0.93;;;;;;;23.93;45.49;101978.97;3618912;39;20067;-83
2021/06/12 12:12:32;;;;;;;1.77;1.13;;;;;;;23.88;44.68;101970.38;3622497;39;20338;-83
2021/06/12 12:15:05;;;;;;;3.30;1.35;;;;;;;23.84;45.42;101970.63;3613364;39;20070;-82
2021/06/12 12:17:33;;;;;;;5.05;1.83;;;;;;;23.80;44.20;101972.63;3612654;39;20115;-82
2021/06/12 12:20:04;;;;;;;3.38;1.70;;;;;;;23.87;45.07;101976.63;3613340;39;20035;-82
2021/06/12 12:22:45;;;;;;;3.58;1.50;;;;;;;24.06;45.68;101974.59;3614531;39;20035;-83
2021/06/12 12:25:13;;;;;;;4.45;1.50;;;;;;;24.05;44.17;101972.03;3600205;40;20039;-83
2021/06/12 12:27:44;;;;;;;3.75;1.33;;;;;;;24.27;45.16;101982.28;3597818;40;20037;-84
2021/06/12 12:30:11;;;;;;;4.15;1.60;;;;;;;24.32;43.60;101953.50;3599954;39;20033;-83
2021/06/12 12:32:42;;;;;;;3.17;1.50;;;;;;;24.54;44.62;101980.66;3594834;40;20028;-83
2021/06/12 12:35:16;;;;;;;3.78;1.67;;;;;;;24.78;44.50;101980.94;3590381;40;20045;-83
2021/06/12 12:37:45;;;;;;;5.68;2.00;;;;;;;25.01;43.54;101968.81;3590054;40;20302;-82
2021/06/12 12:40:20;;;;;;;4.05;1.90;;;;;;;25.30;43.78;101974.16;3593896;40;20040;-82
2021/06/12 12:43:03;;;;;;;2.65;1.55;;;;;;;25.51;43.92;101972.75;3595407;40;20032;-83
2021/06/12 12:45:40;;;;;;;4.55;2.05;;;;;;;25.66;42.32;101967.38;3587716;40;20036;-84
2021/06/12 12:48:09;;;;;;;5.47;1.92;;;;;;;25.76;42.89;101965.81;3586745;40;20046;-83
2021/06/12 12:50:36;;;;;;;4.35;1.70;;;;;;;25.79;41.30;101965.59;3587125;40;20037;-83
2021/06/12 12:53:06;;;;;;;4.40;2.10;;;;;;;26.02;41.77;101961.41;3600086;40;20044;-84
2021/06/12 12:55:36;;;;;;;4.10;1.90;;;;;;;26.20;41.46;101961.94;3595200;40;20055;-83
2021/06/12 12:58:04;;;;;;;4.25;1.80;;;;;;;26.38;40.23;101964.22;3605393;39;20045;-82
2021/06/12 13:00:35;;;;;;;6.20;2.05;;;;;;;26.68;40.44;101970.25;3601807;39;20440;-82
2021/06/12 13:03:08;;;;;;;4.80;1.95;;;;;;;26.85;39.53;101972.59;3600026;39;20293;-81
2021/06/12 13:05:41;;;;;;;4.55;1.70;;;;;;;26.95;39.72;101979.00;3603877;39;20047;-82
2021/06/12 13:08:10;;;;;;;8.30;1.52;;;;;;;26.85;39.26;101967.22;3596430;39;20037;-83
2021/06/12 13:10:41;;;;;;;3.85;1.45;;;;;;;26.96;38.77;101986.06;3605512;39;20047;-83
2021/06/12 13:13:16;;;;;;;4.05;1.60;;;;;;;26.94;39.04;101979.97;3601368;40;20131;-83
2021/06/12 13:15:59;;;;;;;3.95;1.60;;;;;;;26.98;40.09;101976.13;3599811;40;20042;-82
2021/06/12 13:18:36;;;;;;;2.83;1.40;;;;;;;26.94;39.61;101971.09;3598517;39;20072;-82
2021/06/12 13:21:16;;;;;;;;;;;;;;;27.02;41.81;101982.13;3601879;39;20091;-83
2021/06/12 13:24:08;;;;;;;4.15;1.70;;;;;;;27.01;40.62;101975.88;3608357;39;20184;-83
2021/06/12 13:26:41;;;;;;;3.20;1.63;;;;;;;26.97;40.06;101974.41;3603406;39;20031;-83
2021/06/12 13:29:23;;;;;;;3.42;1.80;;;;;;;27.13;40.22;101968.81;3607718;39;20484;-83
2021/06/12 13:31:52;;;;;;;4.82;2.00;;;;;;;27.15;39.41;101970.41;3612106;39;20039;-83
2021/06/12 13:34:32;;;;;;;3.78;2.10;;;;;;;27.40;39.55;101971.31;3599370;40;20064;-83
2021/06/12 13:37:03;;;;;;;3.40;2.10;;;;;;;27.48;38.55;101971.59;3600419;40;20032;-82
2021/06/12 13:39:37;;;;;;;4.30;2.08;;;;;;;27.62;39.29;101968.72;3604586;39;20041;-83
2021/06/12 13:42:14;;;;;;;2.60;1.52;;;;;;;27.77;38.80;101980.19;3597498;40;20398;-83
2021/06/12 13:45:09;;;;;;;3.95;1.63;;;;;;;27.91;39.69;101973.78;3607867;40;20040;-83
2021/06/12 13:47:37;;;;;;;2.75;1.40;;;;;;;27.89;36.66;101975.72;3603539;39;20036;-83
2021/06/12 13:50:06;;;;;;;3.47;1.42;;;;;;;27.97;36.93;101973.31;3604748;40;20106;-83
2021/06/12 13:52:35;;;;;;;2.90;1.27;;;;;;;28.00;36.34;101980.28;3598522;40;20037;-83
2021/06/12 13:55:09;;;;;;;3.95;1.80;;;;;;;28.03;38.12;101980.03;3602038;39;20709;-83
2021/06/12 13:58:00;;;;;;;3.78;1.40;;;;;;;28.08;38.92;101976.06;3605549;39;20025;-83
2021/06/12 14:00:29;;;;;;;3.85;1.50;;;;;;;27.99;37.57;101976.75;3604603;39;20060;-84
2021/06/12 14:03:00;;;;;;;3.30;1.38;;;;;;;27.99;37.18;101971.38;3605255;39;20056;-84
2021/06/12 14:05:30;;;;;;;3.08;1.58;;;;;;;27.96;37.32;101974.28;3606972;39;20055;-84
2021/06/12 14:07:56;;;;;;;3.88;1.50;;;;;;;27.95;36.86;101974.41;3603671;40;20039;-83
2021/06/12 14:10:28;;;;;;;2.35;1.17;;;;;;;27.93;37.83;101961.09;3607310;40;20035;-83
2021/06/12 14:12:57;;;;;;;3.55;1.50;;;;;;;28.19;37.22;101969.84;3599925;39;20036;-83
2021/06/12 14:15:29;;;;;;;5.30;1.90;;;;;;;28.33;37.69;101966.06;3616475;39;20044;-84
2021/06/12 14:18:02;;;;;;;4.03;1.80;;;;;;;28.49;37.42;101963.97;3604869;39;20061;-83
2021/06/12 14:20:32;;;;;;;2.20;1.25;;;;;;;28.67;37.89;101983.13;3600864;39;20044;-83
2021/06/12 14:23:00;;;;;;;3.47;1.60;;;;;;;28.74;35.21;101980.81;3607668;39;20039;-83
2021/06/12 14:25:29;;;;;;;4.53;1.60;;;;;;;28.75;35.24;101969.94;3606364;39;20083;-84
2021/06/12 14:27:58;;;;;;;3.83;1.60;;;;;;;28.80;35.49;101977.66;3594256;40;20067;-83
2021/06/12 14:30:28;;;;;;;4.13;1.55;;;;;;;28.75;35.83;101969.09;3606343;39;20032;-83
2021/06/12 14:32:58;;;;;;;5.00;1.88;;;;;;;28.84;36.91;101971.03;3609281;39;20032;-83
2021/06/12 14:35:25;;;;;;;4.10;1.55;;;;;;;28.84;36.40;101971.03;3609220;39;20386;-83
2021/06/12 14:37:53;;;;;;;3.40;1.70;;;;;;;28.88;36.37;101976.03;3610504;39;20089;-83
2021/06/12 14:40:21;;;;;;;3.05;1.30;;;;;;;28.97;36.67;101973.63;3610072;39;20021;-83
2021/06/12 14:42:53;;;;;;;5.03;1.50;;;;;;;29.05;37.14;101971.19;3606431;39;20039;-83
2021/06/12 14:45:23;;;;;;;4.85;1.75;;;;;;;29.10;36.35;101975.22;3604295;39;20052;-83
2021/06/12 14:47:50;;;;;;;3.45;1.70;;;;;;;29.18;35.53;101978.13;3604329;39;20072;-82
2021/06/12 14:50:18;;;;;;;3.80;1.55;;;;;;;29.24;35.41;101959.78;3602593;39;20043;-83
2021/06/12 14:52:50;;;;;;;5.93;2.00;;;;;;;29.42;36.04;101971.72;3621879;39;20032;-84
2021/06/12 14:55:18;;;;;;;2.97;1.27;;;;;;;29.39;35.80;101970.13;3610486;39;20040;-84
2021/06/12 14:57:51;;;;;;;3.45;1.80;;;;;;;29.48;35.50;101968.53;3612711;39;20036;-83
2021/06/12 15:00:22;;;;;;;2.72;1.40;;;;;;;29.43;36.40;101960.81;3623681;39;20031;-84
2021/06/12 15:02:49;;;;;;;4.20;1.60;;;;;;;29.17;35.81;101938.75;3613056;39;20386;-83
2021/06/12 15:05:16;;;;;;;3.67;1.63;;;;;;;29.22;36.02;101957.22;3614551;39;20148;-83
2021/06/12 15:07:45;;;;;;;3.97;1.95;;;;;;;29.27;36.28;101959.53;3610282;39;20036;-83
2021/06/12 15:10:13;;;;;;;5.55;1.92;;;;;;;29.21;36.35;101972.50;3611127;39;20140;-83
2021/06/12 15:12:42;;;;;;;4.55;1.73;;;;;;;29.31;36.73;101961.00;3610563;39;20035;-83
2021/06/12 15:15:10;;;;;;;3.58;1.70;;;;;;;29.25;35.89;101942.63;3617898;39;20031;-84
2021/06/12 15:17:42;;;;;;;3.95;1.70;;;;;;;29.50;36.15;101957.63;3619875;39;20024;-84
2021/06/12 15:20:11;;;;;;;4.78;1.63;;;;;;;29.49;35.98;101959.47;3602715;39;20588;-84
2021/06/12 15:22:40;;;;;;;4.38;1.67;;;;;;;29.53;35.68;101960.06;3619924;39;20067;-84
2021/06/12 15:25:10;;;;;;;4.95;2.05;;;;;;;29.62;35.65;101968.25;3613678;39;20031;-84
2021/06/12 15:27:40;;;;;;;6.70;1.73;;;;;;;29.55;34.87;101958.97;3613987;39;20089;-84
2021/06/12 15:30:10;;;;;;;4.13;1.92;;;;;;;29.25;35.74;101935.44;3609230;39;20076;-84
2021/06/12 15:32:37;;;;;;;4.38;1.48;;;;;;;29.26;36.11;101971.28;3620488;39;20727;-83
2021/06/12 15:35:06;;;;;;;5.05;1.90;;;;;;;29.00;36.06;101944.66;3618569;39;20024;-83
2021/06/12 15:37:34;;;;;;;4.07;2.00;;;;;;;28.80;36.23;101940.00;3617090;39;20067;-83
2021/06/12 15:40:07;;;;;;;5.20;2.20;;;;;;;28.80;36.56;101962.38;3614371;39;20027;-84
2021/06/12 15:42:38;;;;;;;4.85;2.33;;;;;;;28.69;37.18;101963.22;3613401;39;20035;-83
2021/06/12 15:45:05;;;;;;;6.53;2.70;;;;;;;28.54;36.28;101960.88;3612583;39;20060;-84
2021/06/12 15:47:34;;;;;;;6.68;2.95;;;;;;;28.41;37.05;101971.75;3611292;39;20036;-83
2021/06/12 15:50:02;;;;;;;4.30;2.17;;;;;;;28.22;37.39;101966.06;3612223;39;20116;-83
2021/06/12 15:52:29;;;;;;;5.03;2.22;;;;;;;27.95;37.50;101953.78;3609019;39;20789;-83
2021/06/12 15:54:57;;;;;;;4.30;2.30;;;;;;;27.90;38.45;101961.34;3604231;40;20056;-84
2021/06/12 15:57:32;;;;;;;4.10;2.30;;;;;;;27.81;38.35;101962.88;3599708;40;20041;-83
2021/06/12 16:00:25;;;;;;;5.82;2.70;;;;;;;27.75;38.58;101968.72;3600943;40;20444;-84
2021/06/12 16:02:51;;;;;;;4.78;2.60;;;;;;;27.58;38.56;101969.94;3594442;40;20039;-83
2021/06/12 16:05:22;;;;;;;5.30;2.85;;;;;;;27.56;38.58;101966.50;3599950;40;20037;-83
2021/06/12 16:07:51;;;;;;;5.15;2.58;;;;;;;27.47;39.31;101963.66;3604645;39;20068;-83
2021/06/12 16:10:19;;;;;;;5.32;2.60;;;;;;;27.44;39.64;101958.53;3607017;40;20035;-83
2021/06/12 16:12:46;;;;;;;4.13;2.08;;;;;;;27.49;39.61;101967.94;3601399;40;20077;-83
2021/06/12 16:15:16;;;;;;;4.05;2.20;;;;;;;27.50;39.62;101968.81;3601343;40;20048;-84
2021/06/12 16:17:43;;;;;;;5.72;2.17;;;;;;;27.58;39.09;101971.78;3600791;40;20770;-83
2021/06/12 16:20:12;;;;;;;3.35;1.73;;;;;;;27.65;39.53;101978.38;3592686;40;20031;-84
2021/06/12 16:22:43;;;;;;;4.60;1.98;;;;;;;27.67;38.51;101961.19;3596796;40;20040;-84
2021/06/12 16:25:13;;;;;;;6.50;2.00;;;;;;;27.56;38.51;101931.63;3600568;40;20037;-84
2021/06/12 16:28:07;;;;;;;4.82;1.88;;;;;;;27.82;39.64;101953.84;3599876;40;20036;-84
2021/06/12 16:30:35;;;;;;;3.63;1.98;;;;;;;27.76;38.88;101954.31;3594623;40;20057;-83
2021/06/12 16:33:02;;;;;;;4.93;2.05;;;;;;;27.78;38.94;101955.06;3598688;40;20049;-84
2021/06/12 16:35:30;;;;;;;5.97;2.10;;;;;;;27.81;38.55;101956.66;3600126;40;20097;-83
2021/06/12 16:37:57;;;;;;;6.03;2.25;;;;;;;27.66;38.86;101937.16;3603867;40;20024;-84
2021/06/12 16:40:24;;;;;;;;;;;;;;;27.84;39.47;101956.44;3605303;40;20078;-83
2021/06/12 16:42:52;;;;;;;3.72;1.85;;;;;;;27.66;39.34;101942.53;3603476;40;20378;-84
2021/06/12 16:45:21;;;;;;;4.15;1.80;;;;;;;27.54;39.34;101944.31;3603059;40;20313;-83
2021/06/12 16:47:48;;;;;;;4.38;1.90;;;;;;;27.48;39.71;101952.81;3595156;40;20037;-84
2021/06/12 16:50:15;;;;;;;;;;;;;;;27.52;40.02;101948.06;3605409;40;20037;-83
2021/06/12 16:52:46;;;;;;;5.13;1.98;;;;;;;27.41;40.00;101954.22;3601167;40;19932;-83
2021/06/12 16:58:06;;;;;;;4.13;1.90;;;;;;;27.38;40.83;101938.38;3616682;39;20298;-84
2021/06/12 17:00:35;;;;;;;3.50;2.17;;;;;;;27.41;40.31;101948.88;3612463;39;20035;-83
2021/06/12 17:03:04;;;;;;;6.50;2.03;;;;;;;27.38;40.74;101943.75;3611919;39;20088;-83
2021/06/12 17:05:32;;;;;;;4.90;2.20;;;;;;;27.33;40.57;101946.75;3616562;39;20068;-83
2021/06/12 17:08:03;;;;;;;4.55;2.13;;;;;;;27.33;40.29;101949.44;3611872;39;20392;-83
2021/06/12 17:10:31;;;;;;;4.57;1.90;;;;;;;27.29;40.93;101955.16;3607239;40;20045;-83
2021/06/12 17:12:58;;;;;;;2.92;1.45;;;;;;;27.22;40.60;101957.44;3606940;39;20028;-84
2021/06/12 17:15:27;;;;;;;4.40;1.65;;;;;;;27.20;41.49;101950.44;3602950;39;20060;-83
2021/06/12 17:17:59;;;;;;;5.85;1.92;;;;;;;27.17;41.75;101946.19;3599683;39;20599;-83
2021/06/12 17:20:27;;;;;;;3.85;1.70;;;;;;;27.20;41.53;101945.94;3620888;39;20177;-84
2021/06/12 17:22:58;;;;;;;6.50;2.25;;;;;;;27.32;41.56;101952.22;3618506;39;20040;-83
2021/06/12 17:25:32;;;;;;;4.35;2.08;;;;;;;27.37;41.36;101950.06;3609431;39;20025;-83
2021/06/12 17:28:03;;;;;;;2.85;1.65;;;;;;;27.39;41.20;101956.19;3618495;39;20035;-84
2021/06/12 17:30:31;;;;;;;4.45;1.92;;;;;;;27.31;41.19;101953.19;3612972;39;20080;-83
2021/06/12 17:33:03;;;;;;;5.15;2.13;;;;;;;27.29;41.07;101957.84;3615063;39;20035;-84
2021/06/12 17:35:32;;;;;;;3.72;2.05;;;;;;;27.19;41.54;101952.28;3617659;39;20031;-84
2021/06/12 17:38:01;;;;;;;4.25;2.20;;;;;;;27.15;41.58;101959.69;3622339;39;20570;-84
2021/06/12 17:40:28;;;;;;;5.38;2.35;;;;;;;27.11;41.84;101968.91;3611516;39;20088;-84
2021/06/12 17:42:59;;;;;;;4.47;2.25;;;;;;;27.10;41.49;101967.22;3604219;39;20409;-83
2021/06/12 17:45:27;;;;;;;4.30;2.15;;;;;;;26.96;41.69;101951.22;3621649;39;20027;-84
2021/06/12 17:47:54;;;;;;;4.75;2.10;;;;;;;26.87;42.21;101955.44;3613092;39;20080;-84
2021/06/12 17:50:25;;;;;;;2.92;1.67;;;;;;;26.80;42.31;101945.25;3614119;39;20027;-84
2021/06/12 17:52:55;;;;;;;4.18;2.15;;;;;;;26.60;42.11;101935.94;3593471;40;20040;-84
2021/06/12 17:55:24;;;;;;;;;;;;;;;26.72;42.12;101961.03;3583923;40;20036;-84
2021/06/12 17:57:52;;;;;;;10.43;2.45;;;;;;;26.51;42.96;101966.94;3599119;39;20355;-84
2021/06/12 18:00:21;;;;;;;3.97;1.50;;;;;;;26.42;43.11;101964.91;3602342;40;20025;-83
2021/06/12 18:02:48;;;;;;;4.22;1.52;;;;;;;26.26;43.47;101958.88;3608478;39;20081;-84
2021/06/12 18:05:15;;;;;;;2.85;1.48;;;;;;;26.17;44.11;101959.50;3587321;40;20025;-83